createdAt,value
2023-05-22T00:01:16.175Z,6.63
2023-05-22T00:03:43.259Z,7.25
2023-05-22T00:06:12.029Z,6.72
2023-05-22T00:08:39.192Z,7.50
2023-05-22T00:11:06.399Z,7.10
2023-05-22T00:13:33.655Z,6.90
2023-05-22T00:16:00.903Z,7.20
2023-05-22T00:18:28.021Z,7.00
2023-05-22T00:20:55.397Z,7.65
2023-05-22T00:23:22.523Z,6.90
2023-05-22T00:25:50.715Z,7.43
2023-05-22T00:28:18.466Z,7.97
2023-05-22T00:30:45.577Z,7.25
2023-05-22T00:33:12.876Z,7.53
2023-05-22T00:35:40.071Z,7.50
2023-05-22T00:38:08.610Z,8.23
2023-05-22T00:40:36.064Z,8.35
2023-05-22T00:43:08.400Z,7.80
2023-05-22T00:45:35.906Z,8.00
2023-05-22T00:48:03.145Z,6.80
2023-05-22T00:50:30.306Z,7.38
2023-05-22T00:52:57.404Z,7.05
2023-05-22T00:55:24.564Z,7.10
2023-05-22T00:57:52.052Z,7.40
2023-05-22T01:00:19.628Z,6.67
2023-05-22T01:02:46.945Z,7.00
2023-05-22T01:05:18.118Z,7.28
2023-05-22T01:07:46.451Z,6.50
2023-05-22T01:10:13.599Z,6.18
2023-05-22T01:12:55.576Z,6.57
2023-05-22T01:15:49.979Z,7.30
2023-05-22T01:18:25.283Z,6.68
2023-05-22T01:21:30.465Z,6.53
2023-05-22T01:24:35.600Z,6.32
2023-05-22T01:27:26.305Z,6.10
2023-05-22T01:30:21.294Z,5.97
2023-05-22T01:32:49.367Z,6.13
2023-05-22T01:35:19.073Z,6.70
2023-05-22T01:37:46.889Z,6.20
2023-05-22T01:40:14.326Z,6.17
2023-05-22T01:42:41.695Z,5.95
2023-05-22T01:45:12.218Z,5.95
2023-05-22T01:47:39.359Z,6.28
2023-05-22T01:50:06.899Z,5.93
2023-05-22T01:52:50.396Z,5.67
2023-05-22T01:55:21.926Z,5.93
2023-05-22T01:58:14.429Z,5.57
2023-05-22T02:00:43.858Z,5.85
2023-05-22T02:03:17.814Z,6.07
2023-05-22T02:05:45.891Z,6.00
2023-05-22T02:08:14.143Z,5.93
2023-05-22T02:10:42.366Z,5.90
2023-05-22T02:13:09.681Z,6.10
2023-05-22T02:15:37.015Z,5.57
2023-05-22T02:18:10.203Z,5.77
2023-05-22T02:20:37.483Z,5.93
2023-05-22T02:23:05.058Z,6.18
2023-05-22T02:25:32.179Z,5.53
2023-05-22T02:27:59.519Z,6.40
2023-05-22T02:30:27.047Z,6.07
2023-05-22T02:32:54.544Z,6.32
2023-05-22T02:35:21.722Z,6.10
2023-05-22T02:37:48.842Z,5.75
2023-05-22T02:40:16.135Z,5.80
2023-05-22T02:42:43.299Z,6.87
2023-05-22T02:45:10.533Z,5.85
2023-05-22T02:47:37.743Z,5.82
2023-05-22T02:50:05.399Z,5.75
2023-05-22T02:52:32.619Z,5.85
2023-05-22T02:54:59.710Z,5.97
2023-05-22T02:57:27.073Z,7.88
2023-05-22T02:59:54.145Z,6.93
2023-05-22T03:02:21.298Z,6.22
2023-05-22T03:04:48.360Z,6.38
2023-05-22T03:07:15.606Z,5.93
2023-05-22T03:09:42.917Z,5.90
2023-05-22T03:12:10.291Z,6.25
2023-05-22T03:14:37.419Z,6.10
2023-05-22T03:17:04.744Z,6.20
2023-05-22T03:19:31.982Z,5.70
2023-05-22T03:21:59.137Z,5.70
2023-05-22T03:24:27.055Z,5.68
2023-05-22T03:26:54.243Z,5.40
2023-05-22T03:29:21.642Z,7.18
2023-05-22T03:31:48.825Z,6.07
2023-05-22T03:34:16.773Z,5.43
2023-05-22T03:36:45.180Z,5.40
2023-05-22T03:39:12.376Z,5.80
2023-05-22T03:41:39.543Z,6.13
2023-05-22T03:44:06.731Z,6.17
2023-05-22T03:46:33.867Z,6.15
2023-05-22T03:49:01.009Z,6.82
2023-05-22T03:51:28.130Z,6.28
2023-05-22T03:53:55.381Z,5.82
2023-05-22T03:56:22.615Z,5.87
2023-05-22T03:58:50.473Z,6.40
2023-05-22T04:01:17.983Z,5.90
2023-05-22T04:03:45.239Z,6.47
2023-05-22T04:06:13.778Z,5.22
2023-05-22T04:08:41.115Z,4.93
2023-05-22T04:11:08.323Z,4.88
2023-05-22T04:13:35.544Z,5.10
2023-05-22T04:16:04.255Z,5.63
2023-05-22T04:18:31.404Z,5.00
2023-05-22T04:20:58.666Z,5.20
2023-05-22T04:23:25.871Z,4.95
2023-05-22T04:25:53.260Z,5.85
2023-05-22T04:28:23.445Z,5.03
2023-05-22T04:30:50.627Z,5.45
2023-05-22T04:33:18.116Z,6.13
2023-05-22T04:35:45.323Z,5.35
2023-05-22T04:38:13.008Z,4.72
2023-05-22T04:40:40.345Z,4.93
2023-05-22T04:43:07.698Z,5.13
2023-05-22T04:45:35.560Z,4.77
2023-05-22T04:48:02.990Z,4.93
2023-05-22T04:50:33.185Z,4.65
2023-05-22T04:53:00.363Z,5.85
2023-05-22T04:55:27.470Z,4.90
2023-05-22T04:57:56.298Z,4.87
2023-05-22T05:00:26.510Z,4.82
2023-05-22T05:02:53.766Z,4.88
2023-05-22T05:05:21.815Z,4.75
2023-05-22T05:07:50.399Z,5.13
2023-05-22T05:10:17.923Z,5.30
2023-05-22T05:12:45.167Z,4.72
2023-05-22T05:15:12.261Z,4.80
2023-05-22T05:17:39.423Z,4.65
2023-05-22T05:20:07.721Z,5.13
2023-05-22T05:22:34.860Z,4.97
2023-05-22T05:25:01.991Z,4.75
2023-05-22T05:27:29.324Z,4.80
2023-05-22T05:29:56.407Z,5.00
2023-05-22T05:32:23.677Z,5.07
2023-05-22T05:34:51.514Z,5.10
2023-05-22T05:37:18.779Z,5.30
2023-05-22T05:39:45.876Z,5.30
2023-05-22T05:42:13.073Z,5.03
2023-05-22T05:44:40.282Z,4.65
2023-05-22T05:47:07.393Z,4.80
2023-05-22T05:49:35.843Z,4.35
2023-05-22T05:52:03.152Z,4.70
2023-05-22T05:54:30.261Z,4.85
2023-05-22T05:56:57.374Z,4.70
2023-05-22T05:59:24.737Z,4.80
2023-05-22T06:01:51.873Z,4.20
2023-05-22T06:04:18.968Z,4.78
2023-05-22T06:06:47.728Z,4.20
2023-05-22T06:09:14.947Z,5.10
2023-05-22T06:11:42.181Z,4.37
2023-05-22T06:14:09.994Z,4.28
2023-05-22T06:16:37.130Z,4.22
2023-05-22T06:19:04.784Z,4.20
2023-05-22T06:21:32.180Z,3.97
2023-05-22T06:23:59.292Z,3.80
2023-05-22T06:26:28.866Z,4.15
2023-05-22T06:28:58.729Z,4.70
2023-05-22T06:31:25.956Z,4.28
2023-05-22T06:33:53.112Z,4.30
2023-05-22T06:36:20.267Z,4.40
2023-05-22T06:38:49.503Z,4.60
2023-05-22T06:41:16.652Z,3.80
2023-05-22T06:43:43.713Z,4.82
2023-05-22T06:46:11.003Z,4.10
2023-05-22T06:48:38.169Z,4.20
2023-05-22T06:51:05.403Z,4.22
2023-05-22T06:53:32.543Z,6.35
2023-05-22T06:56:00.190Z,4.28
2023-05-22T06:58:27.297Z,4.55
2023-05-22T07:00:55.451Z,4.47
2023-05-22T07:03:23.046Z,3.67
2023-05-22T07:05:51.198Z,3.80
2023-05-22T07:08:18.338Z,3.97
2023-05-22T07:10:45.457Z,4.30
2023-05-22T07:13:12.603Z,4.00
2023-05-22T07:15:39.765Z,4.00
2023-05-22T07:18:07.755Z,4.22
2023-05-22T07:20:34.863Z,3.83
2023-05-22T07:23:01.935Z,3.97
2023-05-22T07:25:29.218Z,4.50
2023-05-22T07:27:58.282Z,5.40
2023-05-22T07:30:25.496Z,4.30
2023-05-22T07:32:52.704Z,4.75
2023-05-22T07:35:19.798Z,4.57
2023-05-22T07:37:46.925Z,4.10
2023-05-22T07:40:14.073Z,4.10
2023-05-22T07:42:41.685Z,4.63
2023-05-22T07:45:10.269Z,3.92
2023-05-22T07:47:37.365Z,4.40
2023-05-22T07:50:04.910Z,4.80
2023-05-22T07:52:32.809Z,4.72
2023-05-22T07:55:00.258Z,4.22
2023-05-22T07:57:27.374Z,4.22
2023-05-22T07:59:54.518Z,3.70
2023-05-22T08:02:23.761Z,3.83
2023-05-22T08:04:51.062Z,4.20
2023-05-22T08:07:18.342Z,4.45
2023-05-22T08:09:46.772Z,4.47
2023-05-22T08:12:13.914Z,3.70
2023-05-22T08:14:41.197Z,3.70
2023-05-22T08:17:08.470Z,3.90
2023-05-22T08:19:36.373Z,4.50
2023-05-22T08:22:03.521Z,3.85
2023-05-22T08:24:31.419Z,3.63
2023-05-22T08:26:58.960Z,4.07
2023-05-22T08:29:26.142Z,3.35
2023-05-22T08:31:54.104Z,4.63
2023-05-22T08:34:21.718Z,3.90
2023-05-22T08:36:49.838Z,3.80
2023-05-22T08:39:18.898Z,3.80
2023-05-22T08:41:47.622Z,3.97
2023-05-22T08:44:14.964Z,3.65
2023-05-22T08:46:43.950Z,4.40
2023-05-22T08:49:11.419Z,3.92
2023-05-22T08:51:40.774Z,3.90
2023-05-22T08:54:08.929Z,3.38
2023-05-22T08:56:39.711Z,3.83
2023-05-22T08:59:13.180Z,3.83
2023-05-22T09:01:40.554Z,3.58
2023-05-22T09:04:07.844Z,3.07
2023-05-22T09:06:35.037Z,3.58
2023-05-22T09:09:05.918Z,3.30
2023-05-22T09:11:33.081Z,3.22
2023-05-22T09:14:10.237Z,3.88
2023-05-22T09:16:49.489Z,3.50
2023-05-22T09:19:16.797Z,3.88
2023-05-22T09:21:47.631Z,4.20
2023-05-22T09:24:14.967Z,3.17
2023-05-22T09:26:42.329Z,3.47
2023-05-22T09:29:09.834Z,3.47
2023-05-22T09:31:43.797Z,3.13
2023-05-22T09:34:14.246Z,3.35
2023-05-22T09:36:42.370Z,3.50
2023-05-22T09:39:09.649Z,3.97
2023-05-22T09:41:38.177Z,3.27
2023-05-22T09:44:15.515Z,3.35
2023-05-22T09:46:44.588Z,3.25
2023-05-22T09:49:14.985Z,3.17
2023-05-22T09:51:47.296Z,4.18
2023-05-22T09:54:16.093Z,3.37
2023-05-22T09:56:44.344Z,3.30
2023-05-22T09:59:12.701Z,4.75
2023-05-22T10:01:40.717Z,3.45
2023-05-22T10:04:13.192Z,3.47
2023-05-22T10:06:41.001Z,3.67
2023-05-22T10:09:11.263Z,3.33
2023-05-22T10:11:38.543Z,3.20
2023-05-22T10:14:05.805Z,3.22
2023-05-22T10:16:34.312Z,3.08
2023-05-22T10:19:01.829Z,2.80
2023-05-22T10:21:30.100Z,3.17
2023-05-22T10:23:58.054Z,3.28
2023-05-22T10:26:25.396Z,2.88
2023-05-22T10:29:12.781Z,3.40
2023-05-22T10:31:45.582Z,3.40
2023-05-22T10:34:18.119Z,3.30
2023-05-22T10:36:52.330Z,3.53
2023-05-22T10:39:37.581Z,2.80
2023-05-22T10:42:05.114Z,3.25
2023-05-22T10:44:33.264Z,3.10
2023-05-22T10:47:10.211Z,3.17
2023-05-22T10:49:37.520Z,2.80
2023-05-22T10:52:04.765Z,3.00
2023-05-22T10:54:46.000Z,2.88
2023-05-22T10:57:16.256Z,3.10
2023-05-22T10:59:43.980Z,2.83
2023-05-22T11:02:21.696Z,3.33
2023-05-22T11:04:49.387Z,3.08
2023-05-22T11:07:16.560Z,3.42
2023-05-22T11:09:48.658Z,3.00
2023-05-22T11:12:28.348Z,3.40
2023-05-22T11:14:59.067Z,3.17
2023-05-22T11:17:30.668Z,3.20
2023-05-22T11:20:08.283Z,3.08
2023-05-22T11:22:36.687Z,2.73
2023-05-22T11:25:07.552Z,3.20
2023-05-22T11:27:35.243Z,3.30
2023-05-22T11:30:02.682Z,3.30
2023-05-22T11:32:29.922Z,3.13
2023-05-22T11:34:57.756Z,3.27
2023-05-22T11:37:24.891Z,3.30
2023-05-22T11:39:58.592Z,3.67
2023-05-22T11:42:25.669Z,3.45
2023-05-22T11:44:52.812Z,3.42
2023-05-22T11:47:19.972Z,3.40
2023-05-22T11:49:47.111Z,2.95
2023-05-22T11:52:16.538Z,3.03
2023-05-22T11:54:47.523Z,2.80
2023-05-22T11:57:15.374Z,3.20
2023-05-22T11:59:46.883Z,2.87
2023-05-22T12:02:14.592Z,2.95
2023-05-22T12:04:41.741Z,3.10
2023-05-22T12:07:09.133Z,3.55
2023-05-22T12:09:39.425Z,2.90
2023-05-22T12:12:06.517Z,3.17
2023-05-22T12:14:33.646Z,2.67
2023-05-22T12:17:04.276Z,3.10
2023-05-22T12:19:32.427Z,4.00
2023-05-22T12:21:59.642Z,3.22
2023-05-22T12:24:27.319Z,3.00
2023-05-22T12:26:55.528Z,3.13
2023-05-22T12:29:22.902Z,2.97
2023-05-22T12:31:50.267Z,3.17
2023-05-22T12:34:18.693Z,3.13
2023-05-22T12:36:47.114Z,3.10
2023-05-22T12:39:17.445Z,3.13
2023-05-22T12:41:45.893Z,3.35
2023-05-22T12:44:15.306Z,3.00
2023-05-22T12:46:42.921Z,3.45
2023-05-22T12:49:10.647Z,3.27
2023-05-22T12:51:37.854Z,3.50
2023-05-22T12:54:05.265Z,3.78
2023-05-22T12:56:32.487Z,3.10
2023-05-22T12:58:59.677Z,4.45
2023-05-22T13:01:26.883Z,3.13
2023-05-22T13:03:54.113Z,3.50
2023-05-22T13:06:21.272Z,3.72
2023-05-22T13:08:48.454Z,3.30
2023-05-22T13:11:15.733Z,3.15
2023-05-22T13:13:42.840Z,3.50
2023-05-22T13:16:10.813Z,3.67
2023-05-22T13:18:38.004Z,3.25
2023-05-22T13:21:05.428Z,3.13
2023-05-22T13:23:32.678Z,3.15
2023-05-22T13:26:01.968Z,3.00
2023-05-22T13:28:29.362Z,3.25
2023-05-22T13:30:56.615Z,3.95
2023-05-22T13:33:24.590Z,2.83
2023-05-22T13:35:52.008Z,3.35
2023-05-22T13:38:19.209Z,3.20
2023-05-22T13:40:48.282Z,3.17
2023-05-22T13:43:16.050Z,3.20
2023-05-22T13:45:43.259Z,3.53
2023-05-22T13:48:11.271Z,2.95
2023-05-22T13:50:38.540Z,3.27
2023-05-22T13:53:05.851Z,3.40
2023-05-22T13:55:32.951Z,3.03
2023-05-22T13:58:00.120Z,3.33
2023-05-22T14:00:27.327Z,3.22
2023-05-22T14:02:54.642Z,3.67
2023-05-22T14:05:22.211Z,3.22
2023-05-22T14:07:50.271Z,3.72
2023-05-22T14:10:17.470Z,3.22
2023-05-22T14:12:44.750Z,3.55
2023-05-22T14:15:11.984Z,3.10
2023-05-22T14:17:39.148Z,3.20
2023-05-22T14:20:07.294Z,3.33
2023-05-22T14:22:55.454Z,3.33
2023-05-22T14:25:25.029Z,3.65
2023-05-22T14:27:52.284Z,3.33
2023-05-22T14:30:19.561Z,3.55
2023-05-22T14:32:47.028Z,3.00
2023-05-22T14:35:16.702Z,3.60
2023-05-22T14:37:44.212Z,2.75
2023-05-22T14:40:11.452Z,3.30
2023-05-22T14:42:39.643Z,2.92
2023-05-22T14:45:07.363Z,3.03
2023-05-22T14:47:34.533Z,3.20
2023-05-22T14:50:17.557Z,2.80
2023-05-22T14:52:46.670Z,3.20
2023-05-22T14:55:15.682Z,3.10
2023-05-22T14:57:42.840Z,3.75
2023-05-22T15:00:10.860Z,4.10
2023-05-22T15:02:38.357Z,3.03
2023-05-22T15:05:07.117Z,3.20
2023-05-22T15:10:05.790Z,3.10
2023-05-22T15:12:33.219Z,3.15
2023-05-22T15:15:01.582Z,3.10
2023-05-22T15:17:28.897Z,3.23
2023-05-22T15:19:56.034Z,3.10
2023-05-22T15:22:23.229Z,3.38
2023-05-22T15:25:03.672Z,3.30
2023-05-22T15:27:31.016Z,3.22
2023-05-22T15:29:58.145Z,3.20
2023-05-22T15:32:25.696Z,3.03
2023-05-22T15:34:52.955Z,3.30
2023-05-22T15:37:20.172Z,3.30
2023-05-22T15:39:47.340Z,2.90
2023-05-22T15:42:14.430Z,3.20
2023-05-22T15:44:41.510Z,2.92
2023-05-22T15:47:08.664Z,3.30
2023-05-22T15:49:35.835Z,3.45
2023-05-22T15:52:02.929Z,3.40
2023-05-22T15:54:30.028Z,3.10
2023-05-22T15:56:57.516Z,3.33
2023-05-22T15:59:24.617Z,3.15
2023-05-22T16:01:51.753Z,3.28
2023-05-22T16:04:18.979Z,3.72
2023-05-22T16:06:46.287Z,3.20
2023-05-22T16:09:13.505Z,3.30
2023-05-22T16:11:40.646Z,2.80
2023-05-22T16:14:07.742Z,2.90
2023-05-22T16:16:34.934Z,3.40
2023-05-22T16:19:02.097Z,2.93
2023-05-22T16:21:29.191Z,3.20
2023-05-22T16:23:57.521Z,3.45
2023-05-22T16:26:24.711Z,3.17
2023-05-22T16:28:51.800Z,3.50
2023-05-22T16:31:19.890Z,3.23
2023-05-22T16:33:47.168Z,3.85
2023-05-22T16:36:14.254Z,3.88
2023-05-22T16:38:41.884Z,2.97
2023-05-22T16:41:09.046Z,3.15
2023-05-22T16:43:37.688Z,3.00
2023-05-22T16:46:04.958Z,3.30
2023-05-22T16:48:32.056Z,3.10
2023-05-22T16:50:59.173Z,3.25
2023-05-22T16:53:26.300Z,3.38
2023-05-22T16:55:53.557Z,3.30
2023-05-22T16:58:21.689Z,3.90
2023-05-22T17:00:49.035Z,3.55
2023-05-22T17:03:16.428Z,2.88
2023-05-22T17:05:43.886Z,3.65
2023-05-22T17:08:11.209Z,3.13
2023-05-22T17:10:38.408Z,3.40
2023-05-22T17:13:05.702Z,3.75
2023-05-22T17:15:32.796Z,3.40
2023-05-22T17:17:59.919Z,3.20
2023-05-22T17:20:27.097Z,3.47
2023-05-22T17:22:54.172Z,3.55
2023-05-22T17:25:21.367Z,3.97
2023-05-22T17:27:48.770Z,3.80
2023-05-22T17:30:15.933Z,3.50
2023-05-22T17:32:43.235Z,3.17
2023-05-22T17:35:10.652Z,3.53
2023-05-22T17:37:37.732Z,3.30
2023-05-22T17:40:05.222Z,3.10
2023-05-22T17:42:33.955Z,3.08
2023-05-22T17:45:01.372Z,3.33
2023-05-22T17:47:28.450Z,3.10
2023-05-22T17:49:55.801Z,3.30
2023-05-22T17:52:22.897Z,3.42
2023-05-22T17:54:50.106Z,3.38
2023-05-22T17:57:17.554Z,3.43
2023-05-22T17:59:45.000Z,3.10
2023-05-22T18:02:12.472Z,3.20
2023-05-22T18:04:39.894Z,3.03
2023-05-22T18:07:07.090Z,3.80
2023-05-22T18:09:34.543Z,2.80
2023-05-22T18:12:03.572Z,3.35
2023-05-22T18:14:30.841Z,3.08
2023-05-22T18:16:58.321Z,2.70
2023-05-22T18:19:25.552Z,3.30
2023-05-22T18:21:53.643Z,2.63
2023-05-22T18:24:25.210Z,2.75
2023-05-22T18:26:52.661Z,3.10
2023-05-22T18:29:19.908Z,2.45
2023-05-22T18:31:47.459Z,2.53
2023-05-22T18:34:14.628Z,3.00
2023-05-22T18:36:42.249Z,2.50
2023-05-22T18:39:10.237Z,2.95
2023-05-22T18:41:37.472Z,2.72
2023-05-22T18:44:04.959Z,3.15
2023-05-22T18:46:32.084Z,3.30
2023-05-22T18:48:59.184Z,3.13
2023-05-22T18:51:26.750Z,3.08
2023-05-22T18:53:53.958Z,3.10
2023-05-22T18:56:21.337Z,2.67
2023-05-22T18:58:48.493Z,2.83
2023-05-22T19:01:17.615Z,2.88
2023-05-22T19:03:44.738Z,2.72
2023-05-22T19:06:12.790Z,3.38
2023-05-22T19:08:40.437Z,3.10
2023-05-22T19:11:07.619Z,2.57
2023-05-22T19:13:34.968Z,2.80
2023-05-22T19:16:04.068Z,3.13
2023-05-22T19:18:31.754Z,2.95
2023-05-22T19:20:59.647Z,3.08
2023-05-22T19:23:28.498Z,2.93
2023-05-22T19:26:01.820Z,3.22
2023-05-22T19:28:31.024Z,3.40
2023-05-22T19:30:59.925Z,3.55
2023-05-22T19:33:28.377Z,3.65
2023-05-22T19:35:55.512Z,3.30
2023-05-22T19:38:22.925Z,3.38
2023-05-22T19:40:50.038Z,3.55
2023-05-22T19:43:17.317Z,2.95
2023-05-22T19:45:45.500Z,3.20
2023-05-22T19:48:13.162Z,3.37
2023-05-22T19:50:41.229Z,3.30
2023-05-22T19:53:08.769Z,3.10
2023-05-22T19:55:35.961Z,3.53
2023-05-22T19:58:03.063Z,3.50
2023-05-22T20:00:31.361Z,3.60
2023-05-22T20:02:58.542Z,3.38
2023-05-22T20:05:26.023Z,4.53
2023-05-22T20:07:53.151Z,3.30
2023-05-22T20:10:20.281Z,3.40
2023-05-22T20:12:48.045Z,3.17
2023-05-22T20:15:15.375Z,3.25
2023-05-22T20:17:48.068Z,3.30
2023-05-22T20:20:16.073Z,3.38
2023-05-22T20:22:43.636Z,4.75
2023-05-22T20:25:10.703Z,4.60
2023-05-22T20:27:38.088Z,3.80
2023-05-22T20:30:07.481Z,4.22
2023-05-22T20:32:35.127Z,4.38
2023-05-22T20:35:03.494Z,4.30
2023-05-22T20:37:34.719Z,4.50
2023-05-22T20:40:09.379Z,4.47
2023-05-22T20:42:37.689Z,3.90
2023-05-22T20:45:05.843Z,4.22
2023-05-22T20:47:36.224Z,5.13
2023-05-22T20:50:03.440Z,4.60
2023-05-22T20:52:30.535Z,4.50
2023-05-22T20:54:58.007Z,4.65
2023-05-22T20:57:25.504Z,4.35
2023-05-22T20:59:53.688Z,5.30
2023-05-22T21:02:21.089Z,4.40
2023-05-22T21:04:48.153Z,4.35
2023-05-22T21:07:15.398Z,4.50
2023-05-22T21:09:43.019Z,4.90
2023-05-22T21:12:10.118Z,4.10
2023-05-22T21:14:37.239Z,5.33
2023-05-22T21:17:04.484Z,4.97
2023-05-22T21:19:31.772Z,5.15
2023-05-22T21:21:58.907Z,5.72
2023-05-22T21:24:25.999Z,5.93
2023-05-22T21:26:53.062Z,5.67
2023-05-22T21:29:20.557Z,4.75
2023-05-22T21:31:48.088Z,4.53
2023-05-22T21:34:15.265Z,5.38
2023-05-22T21:36:42.363Z,5.25
2023-05-22T21:39:09.571Z,4.97
2023-05-22T21:41:36.650Z,4.97
2023-05-22T21:44:03.747Z,4.80
2023-05-22T21:46:31.725Z,5.00
2023-05-22T21:48:59.891Z,4.72
2023-05-22T21:51:27.330Z,4.90
2023-05-22T21:53:54.920Z,4.72
2023-05-22T21:56:22.019Z,4.85
2023-05-22T21:58:49.132Z,4.88
2023-05-22T22:01:16.457Z,5.53
2023-05-22T22:03:43.648Z,4.70
2023-05-22T22:06:11.191Z,4.90
2023-05-22T22:08:38.261Z,4.55
2023-05-22T22:11:05.801Z,4.47
2023-05-22T22:13:32.877Z,4.22
2023-05-22T22:16:00.000Z,4.10
2023-05-22T22:18:27.232Z,4.07
2023-05-22T22:20:55.797Z,3.80
2023-05-22T22:23:23.289Z,4.15
2023-05-22T22:25:50.732Z,3.70
2023-05-22T22:28:17.819Z,3.80
2023-05-22T22:30:45.287Z,4.70
2023-05-22T22:33:12.817Z,4.97
2023-05-22T22:35:40.679Z,5.13
2023-05-22T22:38:08.325Z,5.05
2023-05-22T22:40:35.747Z,4.60
2023-05-22T22:43:03.673Z,5.00
2023-05-22T22:45:31.201Z,4.70
2023-05-22T22:47:58.358Z,5.28
2023-05-22T22:50:25.526Z,6.05
2023-05-22T22:52:52.862Z,5.07
2023-05-22T22:55:20.632Z,4.50
2023-05-22T22:57:49.978Z,5.13
2023-05-22T23:00:18.905Z,4.57
2023-05-22T23:02:47.029Z,4.97
2023-05-22T23:05:14.925Z,3.90
2023-05-22T23:07:42.099Z,3.58
2023-05-22T23:10:09.900Z,4.85
2023-05-22T23:12:36.991Z,3.78
2023-05-22T23:15:05.361Z,4.40
2023-05-22T23:17:32.545Z,3.93
2023-05-22T23:19:59.687Z,3.25
2023-05-22T23:22:26.890Z,3.38
2023-05-22T23:24:53.949Z,3.70
2023-05-22T23:27:22.213Z,4.53
2023-05-22T23:29:49.308Z,4.17
2023-05-22T23:32:16.911Z,3.95
2023-05-22T23:34:44.039Z,3.40
2023-05-22T23:37:11.122Z,2.90
2023-05-22T23:39:38.504Z,3.30
2023-05-22T23:42:05.900Z,3.27
2023-05-22T23:44:33.024Z,3.33
2023-05-22T23:47:00.279Z,2.67
2023-05-22T23:49:27.442Z,3.30
2023-05-22T23:51:54.593Z,2.95
2023-05-22T23:54:21.701Z,3.90
2023-05-22T23:56:48.783Z,3.42
2023-05-22T23:59:15.976Z,3.42
